Hlavní strana
METAR-TAF:

METAR-TAF

Letiště :

Parma, Itálie

zeměpisná šířka: 44-49-17N, zeměpisná délka: 010-17-41E, výška: 50 m

Aktuální stav počasí

Zpráva byla vytvořena před 4 hodinami a 27 minutami, v 19:50 UTC
Jihozápadní vítr 3 kt
Teplota 4°C
Vlhkost vzduchu 87%
Tlak 1026 hPa
Viditelnost: 5000 m
kouřmo

METAR: LIMP 201950Z 23003KT 5000 BR NSC 04/02 Q1026

Čas: 01:17 (00:17 UTC)

Předpověď počasí

Zpráva byla vytvořena před 7 hodinami a 17 minutami, v 17:00 UTC
Předpověď platná od 20 v 18 UTC do 21 v 18 UTC
vítr z různých směrů 5 kt
Viditelnost: 6000 m
Změna
od 20 v 21 UTC do 20 v 23 UTC
Viditelnost: 2000 m
Polojasno ve výšce 1000 ft
kouřmo
Dočasný
od 21 v 02 UTC do 21 v 08 UTC
Viditelnost: 0500 m
Oblačno až skoro zataženo ve výšce 500 ft
mlha
Změna
od 21 v 10 UTC do 21 v 12 UTC
Viditelnost: 5000 m
kouřmo

TAF: LIMP 201700Z 2018/2118 VRB05KT 6000 NSC BECMG 2021/2023 2000 BR SCT010 TEMPO 2102/2108 0500 FG BKN005 BECMG 2110/2112 5000 BR NSC

Stav a předpovědi počasí z více než 4 000 letišť (zprávy METAR a TAF).

Červené a žluté tečky na mapě představují dostupné meteorologické stanice.

Když kurzor umístíte na tečku, zobrazí se název stanice.

Pak kliknutím zobrazíte stav a předpověď počasí.

Chcete-li změnit mapu, kliknutím na zelené tlačítko se znaménkem +mapu přiblížíte, kliknutím na zelené tlačítko se znaménkem – mapu oddálíte a kliknutím na zelené šipky přejdete na sousední mapy.


METAR-TAF: